Impacts TAF Board INFO
FOR SITUATIONAL AWARENESS. NOT TO BE USED FOR FLIGHT PLANNING PURPOSES.
IDs:

KORD - Chicago/O'Hare Intl, IL, US

Issued at 1740 UTC 18 Aug 2018
Updated at 1810 UTC 18 Aug 2018
Potential Impact None Slight Moderate High
Time<<19/07Z 19/08Z 19/09Z 19/10Z 19/11Z 19/12Z 19/13Z 19/14Z 19/15Z 19/16Z 19/17Z 19/18Z 19/19Z>>
Type PRVL PRVL
  [TEMP]  
PRVL
  [TEMP]  
PRVL
  [TEMP]  
PRVL
  [TEMP]  
PRVL PRVL PRVL PRVL PRVL PRVL PRVL PRVL
VIS >6 >6
  [3]  
>6
  [3]  
>6
  [3]  
>6
  [3]  
>6 >6 >6 >6 >6 >6 >6 >6
CIG -- --
  [--]  
--
  [--]  
--
  [--]  
--
  [--]  
-- -- -- -- -- -- -- --
Cover SCT SCT
  [SCT]  
SCT
  [SCT]  
SCT
  [SCT]  
SCT
  [SCT]  
SCT SCT SCT SCT SCT SCT SCT FEW
FltCat VFR VFR
  [MVFR]  
VFR
  [MVFR]  
VFR
  [MVFR]  
VFR
  [MVFR]  
VFR VFR VFR VFR VFR VFR VFR VFR
WX -- --
  [BR MIFG]  
--
  [BR MIFG]  
--
  [BR MIFG]  
--
  [BR MIFG]  
-- -- -- -- -- -- -- --
WDir 30 30
[30]
30
[30]
30
[30]
30
[30]
30 30 30 30 30 30 30 80
WSpd 6 6
  [6]  
6
  [6]  
6
  [6]  
6
  [6]  
6 6 6 6 6 6 6 8
WGst -- --
  [--]  
--
  [--]  
--
  [--]  
--
  [--]  
-- -- -- -- -- -- -- --

Raw TAF
KORD 181740Z 1818/1924 04011KT P6SM SCT025 SCT035
  TEMPO 1818/1820 BKN030
  FM190200 03006KT P6SM SCT250
  TEMPO 1908/1912 3SM BR MIFG
  FM191900 08008KT P6SM FEW250


METAR Board
Radar Display
Forecast Discussion

FOR SITUATIONAL AWARENESS. NOT TO BE USED FOR FLIGHT PLANNING PURPOSES.